Tuesday, April 24, 2018, 8:53 PM EDT
Back to Local

KAQW, N Adams Harriman-and-west

Location: North Adams, MA, United States Lat: 42.7
Local Time: 8:53 PM EDT ( 0:53 GMT) Lon: -73.167
Time Zone: US/Eastern Elev: 652 ft

Show me the last for .
Show Decoded

2018-04-24 19:52 METAR KAQW 242352Z AUTO 22006KT 10SM CLR 16/M01 A3018 RMK AO2 SLP221 T01611011
                 10206 20161 55005 =
2018-04-24 18:52 METAR KAQW 242252Z AUTO 21005KT 10SM CLR 17/M03 A3018 RMK AO2 SLP222 T01721028 =
2018-04-24 17:52 METAR KAQW 242152Z AUTO 24010G15KT 10SM CLR 19/M03 A3018 RMK AO2 SLP223
                 T01891033 =
2018-04-24 16:52 METAR KAQW 242052Z AUTO 23007KT 10SM CLR 19/M06 A3019 RMK AO2 SLP227 T01941056
                 56019 =
2018-04-24 15:52 METAR KAQW 241952Z AUTO 24011G17KT 10SM CLR 19/M05 A3021 RMK AO2 SLP231
                 T01941050 =
2018-04-24 14:52 METAR KAQW 241852Z AUTO 25011G15KT 10SM CLR 20/M04 A3023 RMK AO2 SLP236
                 T02001044 =
2018-04-24 13:52 METAR KAQW 241752Z AUTO 23012KT 10SM CLR 19/M06 A3025 RMK AO2 SLP246 T01941056
                 10194 20072 56033 =
2018-04-24 12:52 METAR KAQW 241652Z AUTO VRB05KT 10SM CLR 19/M04 A3028 RMK AO2 SLP255 T01891044 =
2018-04-24 11:52 METAR KAQW 241552Z AUTO 23006KT 10SM CLR 17/M04 A3031 RMK AO2 SLP266 T01721044 =
2018-04-24 10:52 METAR KAQW 241452Z AUTO 22009KT 10SM CLR 16/M05 A3035 RMK AO2 SLP279 T01611050
                 58014 =
2018-04-24 09:52 METAR KAQW 241352Z AUTO 14003KT 10SM CLR 14/M03 A3036 RMK AO2 SLP284 T01441033 =
2018-04-24 08:52 METAR KAQW 241252Z AUTO 10008KT 10SM CLR 11/M02 A3038 RMK AO2 SLP289 T01061022 =
2018-04-24 07:52 METAR KAQW 241152Z AUTO 00000KT 10SM CLR 07/M03 A3039 RMK AO2 SLP294 T00721033
                 10072 20011 53008 =
2018-04-24 06:52 METAR KAQW 241052Z AUTO 11005KT 10SM CLR 03/M03 A3038 RMK AO2 SLP291 T00331033 =
2018-04-24 05:52 METAR KAQW 240952Z AUTO 00000KT 10SM CLR 02/M04 A3037 RMK AO2 SLP286 T00221039 =
2018-04-24 04:52 METAR KAQW 240852Z AUTO 10008KT 10SM CLR 04/M04 A3037 RMK AO2 SLP285 T00391044
                 56004 =
2018-04-24 03:52 METAR KAQW 240752Z AUTO 11010KT 10SM CLR 05/M04 A3037 RMK AO2 SLP286 T00501044 =
2018-04-24 02:52 METAR KAQW 240652Z AUTO 11005KT 10SM CLR 07/M05 A3036 RMK AO2 SLP283 T00671050 =
2018-04-24 01:52 METAR KAQW 240552Z AUTO 10007KT 10SM CLR 06/M04 A3038 RMK AO2 SLP289 T00561039
                 10133 20050 51001 =
2018-04-24 00:52 METAR KAQW 240452Z AUTO 11005KT 10SM CLR 06/M03 A3038 RMK AO2 SLP290 T00561033
                 402001044 =
2018-04-23 23:52 METAR KAQW 240352Z AUTO 12004KT 10SM CLR 07/M03 A3038 RMK AO2 SLP292 T00721033 =
2018-04-23 22:52 METAR KAQW 240252Z AUTO 11003KT 10SM CLR 08/M03 A3038 RMK AO2 SLP289 T00781028
                 51013 =
2018-04-23 21:52 METAR KAQW 240152Z AUTO 10007KT 10SM CLR 10/M03 A3036 RMK AO2 SLP286 T01001033 =

Support USWX by starting your Amazon purchase here.